KFLD/FLD METAR and TAF weather

Enter ICAO airport designator
Station Type Date Time Source
KFLD METAR 2020/08/07 11:53 UTC NOAA

KFLD 071153Z AUTO 18004KT 4SM BR CLR 15/13 A3017 RMK AO2 SLP214 T01500133 10150 20111 51005 TSNO


Station Type Date Time Source
KFLD Decoded METAR 2020/08/07 11:53 UTC NOAA

FOND DU LAC COUNTY AIRPORT, WI, United States (KFLD) 43-46N 88-29W 240M
Aug 07, 2020 - 07:53 AM EDT / 2020.08.07 1153 UTC
Wind: from the S (180 degrees) at 5 MPH (4 KT):0
Visibility: 4 mile(s):0
Sky conditions: clear
Weather: mist
Temperature: 59.0 F (15.0 C)
Dew Point: 55.9 F (13.3 C)
Relative Humidity: 89%
Pressure (altimeter): 30.17 in. Hg (1021 hPa)
Pressure tendency: 0.01 inches (0.5 hPa) higher than three hours ago
ob: KFLD 071153Z AUTO 18004KT 4SM BR CLR 15/13 A3017 RMK AO2 SLP214 T01500133 10150 20111 51005 TSNO
cycle: 12

Station Type Date Time Source
KFLD TAF UTC NOAA

Error!

Example: see airport list